Time;durP1;ratioP1;P1;durP2;ratioP2;P2;SDS_P1;SDS_P2;PMS_P1;PMS_P2;Temp;Humidity;BMP_temperature;BMP_pressure;BME280_temperature;BME280_humidity;BME280_pressure;Samples;Min_cycle;Max_cycle;Signal;HPM_P1;HPM_P2
2021/12/12 00:02:08;;;;;;;43.20;24.38;;;3.80;99.90;;;;;;5072046;28;20048;-82
2021/12/12 00:04:37;;;;;;;36.42;23.17;;;3.80;99.90;;;;;;5072093;28;20043;-82
2021/12/12 00:07:07;;;;;;;41.17;24.50;;;3.80;99.90;;;;;;5071712;28;20048;-82
2021/12/12 00:09:41;;;;;;;47.08;26.17;;;3.80;99.90;;;;;;5065084;28;20110;-82
2021/12/12 00:12:10;;;;;;;;;;;3.80;99.90;;;;;;5064252;28;20040;-82
2021/12/12 00:14:36;;;;;;;40.28;23.30;;;3.80;99.90;;;;;;5073086;28;19916;-82
2021/12/12 00:17:03;;;;;;;45.13;24.63;;;3.80;99.90;;;;;;5066188;28;20116;-81
2021/12/12 00:19:29;;;;;;;37.70;24.33;;;3.90;99.90;;;;;;5088613;28;20072;-82
2021/12/12 00:21:58;;;;;;;48.40;24.25;;;3.80;99.90;;;;;;5071172;28;20040;-81
2021/12/12 00:24:24;;;;;;;38.55;24.33;;;3.90;99.90;;;;;;5079128;28;20085;-81
2021/12/12 00:26:52;;;;;;;40.28;24.70;;;3.90;99.90;;;;;;5091534;28;20051;-81
2021/12/12 00:29:20;;;;;;;42.80;24.33;;;3.90;99.90;;;;;;5082276;28;20052;-81
2021/12/12 00:31:50;;;;;;;40.88;24.70;;;3.90;99.90;;;;;;5087909;28;20044;-81
2021/12/12 00:34:16;;;;;;;39.80;24.60;;;3.90;99.90;;;;;;5086501;28;20040;-81
2021/12/12 00:36:42;;;;;;;40.03;24.23;;;3.90;99.90;;;;;;5072776;28;20524;-81
2021/12/12 00:39:23;;;;;;;41.45;25.02;;;3.90;99.90;;;;;;5056261;28;20036;-81
2021/12/12 00:42:04;;;;;;;47.42;24.55;;;4.00;99.90;;;;;;5091690;28;20091;-81
2021/12/12 00:44:31;;;;;;;43.78;25.15;;;4.00;99.90;;;;;;5077084;28;20520;-81
2021/12/12 00:46:59;;;;;;;41.35;23.33;;;4.00;99.90;;;;;;5102896;28;20044;-81
2021/12/12 00:49:26;;;;;;;44.92;24.75;;;4.00;99.90;;;;;;5056364;28;20070;-82
2021/12/12 00:51:53;;;;;;;45.63;24.52;;;4.00;99.90;;;;;;5082538;28;20524;-81
2021/12/12 00:54:19;;;;;;;46.70;25.23;;;4.00;99.90;;;;;;5072405;28;20040;-82
2021/12/12 00:56:46;;;;;;;46.83;26.02;;;3.90;99.90;;;;;;5104838;28;20096;-81
2021/12/12 00:59:13;;;;;;;45.65;26.83;;;4.00;99.90;;;;;;5078101;28;20040;-81
2021/12/12 01:01:44;;;;;;;46.65;26.33;;;4.00;99.90;;;;;;5072456;28;20054;-81
2021/12/12 01:04:33;;;;;;;48.60;26.80;;;4.00;99.90;;;;;;5054277;28;20041;-80
2021/12/12 01:07:05;;;;;;;40.55;24.50;;;4.10;99.90;;;;;;5076946;28;20043;-81
2021/12/12 01:09:34;;;;;;;44.08;25.27;;;4.00;99.90;;;;;;5060019;28;20103;-81
2021/12/12 01:12:04;;;;;;;39.95;24.80;;;4.00;99.90;;;;;;5082364;28;20115;-81
2021/12/12 01:14:34;;;;;;;41.92;25.95;;;4.00;99.90;;;;;;5071119;28;20706;-81
2021/12/12 01:17:10;;;;;;;47.10;28.02;;;4.00;99.90;;;;;;5104640;28;20044;-81
2021/12/12 01:19:51;;;;;;;46.28;25.58;;;4.00;99.90;;;;;;5070854;28;20036;-81
2021/12/12 01:22:23;;;;;;;50.03;25.77;;;4.00;99.90;;;;;;5070235;28;20036;-80
2021/12/12 01:24:53;;;;;;;45.13;27.65;;;4.00;99.90;;;;;;5069646;28;20501;-81
2021/12/12 01:27:20;;;;;;;44.35;26.17;;;4.00;99.90;;;;;;5053249;28;20040;-81
2021/12/12 01:29:47;;;;;;;45.47;25.58;;;4.00;99.90;;;;;;5071104;28;20036;-80
2021/12/12 01:32:23;;;;;;;43.03;25.70;;;4.00;99.90;;;;;;5070553;28;20077;-80
2021/12/12 01:34:51;;;;;;;44.25;24.80;;;4.00;99.90;;;;;;5054198;28;20134;-80
2021/12/12 01:39:54;;;;;;;43.10;25.17;;;4.10;99.90;;;;;;5089504;28;20083;-79
2021/12/12 01:42:25;;;;;;;46.88;26.30;;;4.10;99.90;;;;;;5073740;28;20044;-80
2021/12/12 01:45:32;;;;;;;49.60;27.67;;;4.10;99.90;;;;;;5071109;28;20115;-80
2021/12/12 01:48:05;;;;;;;45.28;25.48;;;4.10;99.90;;;;;;5063930;28;20415;-80
2021/12/12 01:50:33;;;;;;;51.67;27.87;;;4.10;99.90;;;;;;5079971;28;20047;-79
2021/12/12 01:53:03;;;;;;;41.83;24.88;;;4.10;99.90;;;;;;5054044;28;20119;-80
2021/12/12 01:55:40;;;;;;;43.95;25.27;;;4.10;99.90;;;;;;5078605;28;20104;-79
2021/12/12 01:58:10;;;;;;;42.17;24.52;;;4.10;99.90;;;;;;5107014;28;20476;-79
2021/12/12 02:00:42;;;;;;;44.25;25.77;;;4.10;99.90;;;;;;5076420;28;20045;-79
2021/12/12 02:03:10;;;;;;;41.45;24.63;;;4.10;99.90;;;;;;5064305;28;20075;-78
2021/12/12 02:05:37;;;;;;;47.50;25.60;;;4.10;99.90;;;;;;5056185;28;20051;-78
2021/12/12 02:08:07;;;;;;;48.53;26.00;;;4.10;99.90;;;;;;5073900;28;20515;-78
2021/12/12 02:10:41;;;;;;;42.92;25.38;;;4.20;99.90;;;;;;5079898;28;20048;-79
2021/12/12 02:13:12;;;;;;;43.95;24.70;;;4.20;99.90;;;;;;5060881;28;20061;-79
2021/12/12 02:15:39;;;;;;;41.70;24.85;;;4.20;99.90;;;;;;5080195;28;20063;-78
2021/12/12 02:18:10;;;;;;;46.05;25.60;;;4.20;99.90;;;;;;5060133;28;20045;-79
2021/12/12 02:20:44;;;;;;;46.97;25.63;;;4.20;99.90;;;;;;5054701;28;20505;-79
2021/12/12 02:23:23;;;;;;;;;;;4.20;99.90;;;;;;5081053;28;20039;-79
2021/12/12 02:36:54;;;;;;;40.30;23.40;;;4.30;99.90;;;;;;5074949;28;20076;-79
2021/12/12 02:39:20;;;;;;;44.10;23.48;;;4.40;99.90;;;;;;5073965;28;20402;-78
2021/12/12 02:41:49;;;;;;;43.13;23.63;;;4.30;99.90;;;;;;5092443;28;20123;-79
2021/12/12 02:44:17;;;;;;;40.72;23.85;;;4.40;99.90;;;;;;5079931;28;20081;-79
2021/12/12 02:46:45;;;;;;;47.70;23.80;;;4.40;99.90;;;;;;5074568;28;20407;-79
2021/12/12 02:49:25;;;;;;;41.45;23.40;;;4.40;99.90;;;;;;5093943;28;20044;-78
2021/12/12 02:51:52;;;;;;;39.63;23.38;;;4.40;99.90;;;;;;5074980;28;20036;-79
2021/12/12 02:54:18;;;;;;;38.70;21.23;;;4.40;99.90;;;;;;5057269;28;20040;-78
2021/12/12 02:56:47;;;;;;;43.65;23.63;;;4.40;99.90;;;;;;5093791;28;20038;-78
2021/12/12 02:59:17;;;;;;;44.50;22.02;;;4.40;99.90;;;;;;5071753;28;20071;-78
2021/12/12 03:02:03;;;;;;;39.90;21.83;;;4.50;99.90;;;;;;5109548;28;20413;-79
2021/12/12 03:04:30;;;;;;;36.40;19.77;;;4.50;99.90;;;;;;5112230;27;20044;-78
2021/12/12 03:06:57;;;;;;;42.00;22.00;;;4.50;99.90;;;;;;5090166;28;20044;-79
2021/12/12 03:09:30;;;;;;;37.70;21.27;;;4.60;99.90;;;;;;5091186;28;20123;-79
2021/12/12 03:12:01;;;;;;;35.08;19.33;;;4.50;99.90;;;;;;5073702;28;20451;-79
2021/12/12 03:14:32;;;;;;;36.33;19.48;;;4.50;99.90;;;;;;5056565;28;20036;-79
2021/12/12 03:17:01;;;;;;;32.00;19.45;;;4.60;99.90;;;;;;5073379;28;20402;-78
2021/12/12 03:19:27;;;;;;;32.83;20.15;;;4.60;99.90;;;;;;5088372;28;20040;-78
2021/12/12 03:21:53;;;;;;;35.05;19.35;;;4.60;99.90;;;;;;5079585;28;20550;-78
2021/12/12 03:24:22;;;;;;;32.90;19.00;;;4.60;99.90;;;;;;5074465;28;20032;-78
2021/12/12 03:26:52;;;;;;;35.95;19.48;;;4.60;99.90;;;;;;5064647;28;20230;-78
2021/12/12 03:29:18;;;;;;;33.42;19.48;;;4.60;99.90;;;;;;5087294;28;20040;-79
2021/12/12 03:31:52;;;;;;;32.97;18.63;;;4.70;99.90;;;;;;5092998;28;20040;-79
2021/12/12 03:34:21;;;;;;;30.75;18.13;;;4.70;99.90;;;;;;5075980;28;20040;-78
2021/12/12 03:36:50;;;;;;;29.50;18.02;;;4.70;99.90;;;;;;5075590;28;20156;-79
2021/12/12 03:39:22;;;;;;;25.90;17.02;;;4.70;99.90;;;;;;5086433;28;20044;-79
2021/12/12 03:41:48;;;;;;;30.65;17.52;;;4.70;99.90;;;;;;5092720;28;20412;-79
2021/12/12 03:44:19;;;;;;;26.20;16.35;;;4.70;99.90;;;;;;5092421;28;20071;-79
2021/12/12 03:46:47;;;;;;;27.35;16.70;;;4.80;99.90;;;;;;5075084;28;20039;-79
2021/12/12 03:49:13;;;;;;;26.23;15.80;;;4.70;99.90;;;;;;5060031;28;20045;-78
2021/12/12 03:51:40;;;;;;;28.52;17.92;;;4.80;99.90;;;;;;5060518;28;20035;-78
2021/12/12 03:54:08;;;;;;;24.73;15.07;;;4.80;99.90;;;;;;5075741;28;20052;-78
2021/12/12 03:56:34;;;;;;;29.52;16.60;;;4.80;99.90;;;;;;5092435;28;20036;-79
2021/12/12 03:59:01;;;;;;;26.30;15.60;;;4.80;99.90;;;;;;5083072;28;20438;-79
2021/12/12 04:01:37;;;;;;;27.88;15.73;;;4.80;99.90;;;;;;5090931;28;20408;-78
2021/12/12 04:04:17;;;;;;;21.95;15.23;;;4.90;99.90;;;;;;5090368;28;20555;-78
2021/12/12 04:06:43;;;;;;;23.63;14.63;;;4.90;99.90;;;;;;5055394;28;20040;-79
2021/12/12 04:09:11;;;;;;;22.15;14.82;;;4.90;99.90;;;;;;5072056;28;20044;-78
2021/12/12 04:11:46;;;;;;;24.00;14.38;;;4.90;99.90;;;;;;5055539;28;20033;-78
2021/12/12 04:14:13;;;;;;;21.80;14.05;;;4.90;99.90;;;;;;5072045;28;20149;-78
2021/12/12 04:16:42;;;;;;;18.52;13.88;;;4.90;99.90;;;;;;5088425;28;20089;-79
2021/12/12 04:19:09;;;;;;;21.90;14.35;;;4.90;99.90;;;;;;5054708;28;20045;-79
2021/12/12 04:21:37;;;;;;;23.13;13.90;;;4.90;99.90;;;;;;5071918;28;20068;-78
2021/12/12 04:24:03;;;;;;;20.55;13.45;;;4.80;99.90;;;;;;5054918;28;20057;-79
2021/12/12 04:26:36;;;;;;;21.67;13.48;;;4.90;99.90;;;;;;5055112;28;20520;-79
2021/12/12 04:29:15;;;;;;;20.83;14.23;;;4.90;99.90;;;;;;5071742;28;20087;-79
2021/12/12 04:31:51;;;;;;;22.08;14.00;;;4.90;99.90;;;;;;5055170;28;20490;-79
2021/12/12 04:34:19;;;;;;;21.80;13.63;;;4.80;99.90;;;;;;5059156;28;20063;-79
2021/12/12 04:36:46;;;;;;;23.70;13.68;;;4.90;99.90;;;;;;5089855;28;20047;-78
2021/12/12 04:39:17;;;;;;;20.05;13.75;;;4.90;99.90;;;;;;5080051;28;20047;-78
2021/12/12 04:41:44;;;;;;;21.42;12.98;;;4.90;99.90;;;;;;5071554;28;20467;-78
2021/12/12 04:44:10;;;;;;;18.05;12.27;;;4.90;99.90;;;;;;5051527;28;20067;-79
2021/12/12 04:49:57;;;;;;;18.55;12.68;;;4.90;99.90;;;;;;5089055;28;20523;-79
2021/12/12 04:52:47;;;;;;;17.63;11.98;;;4.90;99.90;;;;;;5057611;28;20088;-78
2021/12/12 04:55:29;;;;;;;17.23;12.32;;;4.90;99.90;;;;;;5072588;28;20052;-78
2021/12/12 04:58:03;;;;;;;15.23;11.18;;;4.90;99.90;;;;;;5072494;28;20047;-78
2021/12/12 05:00:38;;;;;;;15.63;11.40;;;4.90;99.90;;;;;;5090279;28;20040;-78
2021/12/12 05:03:19;;;;;;;15.27;11.80;;;4.90;99.90;;;;;;5073370;28;20413;-78
2021/12/12 05:05:48;;;;;;;15.13;11.10;;;5.00;99.90;;;;;;5067091;28;20051;-77
2021/12/12 05:08:29;;;;;;;14.95;10.77;;;5.00;99.90;;;;;;5083117;28;20048;-78
2021/12/12 05:10:59;;;;;;;16.25;10.57;;;5.00;99.90;;;;;;5092308;28;20397;-78
2021/12/12 05:13:33;;;;;;;14.23;9.55;;;5.00;99.90;;;;;;5080708;28;20032;-78
2021/12/12 05:16:05;;;;;;;13.23;9.23;;;5.00;99.90;;;;;;5055304;28;20044;-79
2021/12/12 05:18:36;;;;;;;11.38;9.50;;;5.00;99.90;;;;;;5065243;28;20032;-78
2021/12/12 05:21:08;;;;;;;14.20;9.77;;;5.00;99.90;;;;;;5079590;28;20130;-78
2021/12/12 05:23:35;;;;;;;12.73;9.57;;;5.10;99.90;;;;;;5074576;28;20051;-77
2021/12/12 05:26:06;;;;;;;14.20;10.20;;;5.10;99.90;;;;;;5074093;28;20043;-79
2021/12/12 05:28:42;;;;;;;10.65;9.40;;;5.10;99.90;;;;;;5082735;28;20502;-78
2021/12/12 05:31:09;;;;;;;11.23;8.57;;;5.10;99.90;;;;;;5077864;28;20546;-78
2021/12/12 05:33:35;;;;;;;10.50;8.70;;;5.20;99.90;;;;;;5075454;28;20029;-79
2021/12/12 05:36:01;;;;;;;12.48;9.10;;;5.20;99.90;;;;;;5071588;28;20463;-78
2021/12/12 05:38:29;;;;;;;14.27;9.57;;;5.20;99.90;;;;;;5080664;28;20043;-78
2021/12/12 05:40:55;;;;;;;12.32;8.77;;;5.20;99.90;;;;;;5090702;28;20040;-79
2021/12/12 05:43:21;;;;;;;13.02;8.70;;;5.20;99.90;;;;;;5090242;28;20535;-79
2021/12/12 05:45:47;;;;;;;10.65;8.82;;;5.30;99.90;;;;;;5085920;28;20067;-78
2021/12/12 05:48:14;;;;;;;10.65;8.70;;;5.30;99.90;;;;;;5070535;28;20051;-79
2021/12/12 05:50:41;;;;;;;12.15;9.13;;;5.30;99.90;;;;;;5079735;28;20421;-78
2021/12/12 05:53:09;;;;;;;12.48;9.65;;;5.30;99.90;;;;;;5073850;28;20043;-78
2021/12/12 05:55:36;;;;;;;12.63;9.57;;;5.30;99.90;;;;;;5070325;28;20665;-79
2021/12/12 05:58:08;;;;;;;12.48;9.68;;;5.40;99.90;;;;;;5071809;28;20040;-78
2021/12/12 06:00:45;;;;;;;12.50;10.00;;;5.40;99.90;;;;;;5071520;28;20041;-78
2021/12/12 06:03:14;;;;;;;14.07;10.05;;;5.50;99.90;;;;;;5067442;28;20536;-79
2021/12/12 06:05:40;;;;;;;11.90;10.13;;;5.50;99.90;;;;;;5071276;28;20040;-80
2021/12/12 06:08:07;;;;;;;14.10;10.20;;;5.50;99.90;;;;;;5083392;28;20044;-79
2021/12/12 06:10:36;;;;;;;13.20;10.35;;;5.50;99.90;;;;;;5086896;28;20067;-78
2021/12/12 06:13:05;;;;;;;12.80;9.48;;;5.50;99.90;;;;;;5081232;28;20032;-79
2021/12/12 06:15:32;;;;;;;13.20;10.52;;;5.50;99.90;;;;;;5058415;28;20047;-79
2021/12/12 06:17:58;;;;;;;16.65;11.38;;;5.50;99.90;;;;;;5071427;28;20047;-77
2021/12/12 06:20:25;;;;;;;12.98;10.27;;;5.50;99.90;;;;;;5093944;28;20089;-78
2021/12/12 06:22:53;;;;;;;13.35;10.43;;;5.50;99.90;;;;;;5071981;28;20036;-79
2021/12/12 06:25:19;;;;;;;12.65;10.32;;;5.60;99.90;;;;;;5075046;28;20045;-78
2021/12/12 06:27:45;;;;;;;10.93;9.07;;;5.60;99.90;;;;;;5071899;28;20028;-78
2021/12/12 06:30:23;;;;;;;13.20;10.25;;;5.70;99.90;;;;;;5076627;28;20101;-78
2021/12/12 06:32:51;;;;;;;12.93;10.07;;;5.60;99.90;;;;;;5084922;28;20039;-79
2021/12/12 06:35:18;;;;;;;11.25;9.57;;;5.70;99.90;;;;;;5091065;28;20141;-79
2021/12/12 06:37:44;;;;;;;14.07;10.48;;;5.70;99.90;;;;;;5073402;28;20051;-79
2021/12/12 06:40:16;;;;;;;12.55;10.57;;;5.60;99.90;;;;;;5074903;28;20501;-78
2021/12/12 06:42:42;;;;;;;12.50;10.15;;;5.70;99.90;;;;;;5093832;28;20165;-78
2021/12/12 06:45:11;;;;;;;12.30;10.30;;;5.70;99.90;;;;;;5081804;28;20074;-78
2021/12/12 06:47:37;;;;;;;12.77;10.77;;;5.70;99.90;;;;;;5056742;28;20036;-78
2021/12/12 06:50:05;;;;;;;13.20;10.95;;;5.80;99.90;;;;;;5073716;28;20046;-79
2021/12/12 06:52:31;;;;;;;11.40;9.02;;;5.80;99.90;;;;;;5073154;28;20079;-78
2021/12/12 06:54:57;;;;;;;13.13;10.65;;;5.80;99.90;;;;;;5056660;28;20048;-79
2021/12/12 06:57:23;;;;;;;13.27;10.48;;;5.80;99.90;;;;;;5056808;28;20040;-78
2021/12/12 06:59:50;;;;;;;12.18;10.13;;;5.80;99.90;;;;;;5073570;28;20049;-78
2021/12/12 07:02:17;;;;;;;12.80;10.75;;;5.90;99.90;;;;;;5056529;28;20086;-78
2021/12/12 07:04:44;;;;;;;13.85;10.80;;;5.90;99.90;;;;;;5073379;28;20048;-78
2021/12/12 07:07:13;;;;;;;13.70;10.00;;;5.90;99.90;;;;;;5073002;28;20045;-78
2021/12/12 07:09:39;;;;;;;11.70;10.30;;;5.90;99.90;;;;;;5056130;28;20546;-78
2021/12/12 07:12:09;;;;;;;12.20;9.82;;;5.90;99.90;;;;;;5056294;28;20115;-78
2021/12/12 07:14:37;;;;;;;13.00;10.88;;;5.90;99.90;;;;;;5056216;28;20508;-78
2021/12/12 07:17:04;;;;;;;12.82;11.02;;;5.90;99.90;;;;;;5072349;28;20040;-79
2021/12/12 07:19:30;;;;;;;14.25;10.75;;;6.00;99.90;;;;;;5056081;28;20051;-78
2021/12/12 07:21:59;;;;;;;13.00;10.18;;;6.00;99.90;;;;;;5072667;28;20603;-78
2021/12/12 07:24:31;;;;;;;12.60;10.25;;;6.00;99.90;;;;;;5072985;28;20082;-78
2021/12/12 07:26:58;;;;;;;13.77;11.20;;;6.10;99.90;;;;;;5056399;28;20044;-79
2021/12/12 07:29:25;;;;;;;14.38;11.05;;;6.10;99.90;;;;;;5073024;28;20037;-78
2021/12/12 07:31:51;;;;;;;12.48;9.90;;;6.10;99.90;;;;;;5105855;28;20035;-78
2021/12/12 07:34:17;;;;;;;14.57;10.82;;;6.10;99.90;;;;;;5074740;28;20037;-79
2021/12/12 07:36:49;;;;;;;14.77;11.38;;;6.10;99.90;;;;;;5106664;28;20080;-78
2021/12/12 07:39:17;;;;;;;13.45;11.38;;;6.10;99.90;;;;;;5068856;28;20555;-78
2021/12/12 07:41:46;;;;;;;13.82;11.30;;;6.10;99.90;;;;;;5071583;28;20040;-78
2021/12/12 07:44:14;;;;;;;13.95;11.20;;;6.20;99.90;;;;;;5071339;28;20040;-78
2021/12/12 07:46:42;;;;;;;13.35;10.45;;;6.20;99.90;;;;;;5054762;28;20040;-79
2021/12/12 07:49:08;;;;;;;15.23;11.27;;;6.20;99.90;;;;;;5074609;28;20129;-79
2021/12/12 07:51:36;;;;;;;13.45;10.68;;;6.20;99.90;;;;;;5057658;28;20036;-79
2021/12/12 07:54:05;;;;;;;13.00;10.63;;;6.20;99.90;;;;;;5072361;28;20425;-78
2021/12/12 07:56:33;;;;;;;14.02;11.43;;;6.30;99.90;;;;;;5075829;28;20493;-79
2021/12/12 07:59:01;;;;;;;14.75;12.10;;;6.30;99.90;;;;;;5073231;28;20071;-79
2021/12/12 08:01:27;;;;;;;15.43;11.63;;;6.30;99.90;;;;;;5073015;28;20040;-79
2021/12/12 08:03:56;;;;;;;16.38;12.23;;;6.30;99.90;;;;;;5076217;28;20051;-78
2021/12/12 08:06:22;;;;;;;16.40;13.18;;;6.40;99.90;;;;;;5057654;28;20040;-79
2021/12/12 08:08:48;;;;;;;14.02;11.30;;;6.40;99.90;;;;;;5091050;27;20070;-79
2021/12/12 08:11:21;;;;;;;14.95;11.60;;;6.40;99.90;;;;;;5086310;28;20033;-78
2021/12/12 08:13:46;;;;;;;16.15;12.00;;;6.40;99.90;;;;;;5082813;28;20035;-79
2021/12/12 08:16:14;;;;;;;14.65;11.70;;;6.40;99.90;;;;;;5073434;28;20032;-79
2021/12/12 08:18:40;;;;;;;16.83;12.32;;;6.40;99.90;;;;;;5074116;28;20459;-78
2021/12/12 08:21:07;;;;;;;17.63;12.52;;;6.40;99.90;;;;;;5073165;28;20062;-78
2021/12/12 08:23:33;;;;;;;16.27;12.18;;;6.40;99.90;;;;;;5066921;28;20123;-78
2021/12/12 08:26:01;;;;;;;17.10;11.45;;;6.50;99.90;;;;;;5054315;28;20040;-79
2021/12/12 08:28:28;;;;;;;17.13;12.70;;;6.40;99.90;;;;;;5071947;28;20084;-79
2021/12/12 08:30:54;;;;;;;17.35;12.13;;;6.50;99.90;;;;;;5071240;28;20041;-79
2021/12/12 08:33:21;;;;;;;18.92;13.88;;;6.40;99.90;;;;;;5077990;28;20047;-78
2021/12/12 08:35:46;;;;;;;19.60;13.38;;;6.40;99.90;;;;;;5074478;28;20512;-79
2021/12/12 08:38:14;;;;;;;19.08;12.45;;;6.40;99.90;;;;;;5073588;28;20028;-78
2021/12/12 08:40:47;;;;;;;17.58;12.93;;;6.40;99.90;;;;;;5072306;28;20080;-78
2021/12/12 08:43:15;;;;;;;18.38;13.10;;;6.40;99.90;;;;;;5071053;28;20403;-79
2021/12/12 08:45:46;;;;;;;21.90;14.25;;;6.40;99.90;;;;;;5070542;28;20040;-78
2021/12/12 08:48:16;;;;;;;20.38;13.63;;;6.40;99.90;;;;;;5054741;28;20634;-78
2021/12/12 08:50:45;;;;;;;23.35;16.23;;;6.40;99.90;;;;;;5058492;28;20044;-78
2021/12/12 08:53:11;;;;;;;24.23;15.57;;;6.40;99.90;;;;;;5072599;28;20033;-79
2021/12/12 08:55:44;;;;;;;21.33;14.70;;;6.40;99.90;;;;;;5054767;28;20033;-78
2021/12/12 08:58:14;;;;;;;24.38;15.15;;;6.50;99.90;;;;;;5071054;28;20359;-79
2021/12/12 09:00:51;;;;;;;27.02;16.10;;;6.50;99.90;;;;;;5070945;28;20036;-78
2021/12/12 09:03:36;;;;;;;27.00;16.63;;;6.50;99.90;;;;;;5070461;28;20044;-79
2021/12/12 09:06:03;;;;;;;28.08;16.30;;;6.50;99.90;;;;;;5070558;28;20050;-79
2021/12/12 09:08:52;;;;;;;29.13;17.13;;;6.50;99.90;;;;;;5070839;28;20044;-78
2021/12/12 09:11:28;;;;;;;30.60;17.88;;;6.60;99.90;;;;;;5070628;28;20044;-79
2021/12/12 09:14:17;;;;;;;38.92;19.05;;;6.60;99.90;;;;;;5104226;28;20047;-78
2021/12/12 09:16:51;;;;;;;30.02;17.33;;;6.70;99.90;;;;;;5053807;28;20029;-77
2021/12/12 09:19:21;;;;;;;;;;;6.60;99.90;;;;;;5054424;28;20060;-78
2021/12/12 09:21:54;;;;;;;37.58;18.42;;;6.70;99.90;;;;;;5070180;28;19916;-78
2021/12/12 09:24:43;;;;;;;42.35;19.77;;;6.60;99.90;;;;;;5076721;28;20040;-79
2021/12/12 09:27:33;;;;;;;40.25;21.15;;;6.70;99.90;;;;;;5088487;28;20055;-78
2021/12/12 09:30:08;;;;;;;38.70;20.30;;;6.70;99.90;;;;;;5046665;28;20087;-79
2021/12/12 09:32:56;;;;;;;42.38;20.48;;;6.80;99.90;;;;;;5071529;28;20386;-79
2021/12/12 09:35:48;;;;;;;53.58;22.95;;;6.80;99.90;;;;;;5054041;28;20076;-78
2021/12/12 09:38:16;;;;;;;48.25;21.00;;;6.80;99.90;;;;;;5057454;28;20446;-79
2021/12/12 09:40:57;;;;;;;56.85;22.98;;;6.90;99.90;;;;;;5053944;28;20044;-79
2021/12/12 09:43:43;;;;;;;55.28;24.00;;;6.90;99.90;;;;;;5070538;28;20048;-79
2021/12/12 09:46:38;;;;;;;59.33;24.70;;;7.00;99.90;;;;;;5078884;28;20405;-79
2021/12/12 09:52:33;;;;;;;59.78;23.85;;;7.00;99.90;;;;;;5062469;28;20044;-79
2021/12/12 09:55:12;;;;;;;53.63;24.30;;;7.10;99.90;;;;;;5082447;28;20509;-79
2021/12/12 09:57:46;;;;;;;62.42;24.25;;;7.10;99.90;;;;;;5089255;28;20047;-79
2021/12/12 10:00:15;;;;;;;70.05;26.30;;;7.10;99.90;;;;;;5074393;28;20044;-79
2021/12/12 10:03:06;;;;;;;66.40;25.85;;;7.20;99.90;;;;;;5090687;28;20044;-79
2021/12/12 10:06:09;;;;;;;77.55;27.33;;;7.30;99.90;;;;;;5090984;28;20485;-79
2021/12/12 10:08:41;;;;;;;80.35;27.75;;;7.30;99.90;;;;;;5090811;28;20123;-79
2021/12/12 10:11:26;;;;;;;83.68;37.20;;;7.30;99.90;;;;;;5074200;28;20055;-79
2021/12/12 10:14:04;;;;;;;84.80;29.70;;;7.40;99.90;;;;;;5090576;28;20509;-79
2021/12/12 10:17:02;;;;;;;83.78;31.85;;;7.50;99.90;;;;;;5091121;28;20036;-79
2021/12/12 10:19:39;;;;;;;83.78;30.90;;;7.50;99.90;;;;;;5073579;28;20401;-80
2021/12/12 10:22:25;;;;;;;83.50;30.00;;;7.50;99.90;;;;;;5074017;28;20040;-79
2021/12/12 10:24:58;;;;;;;76.50;27.73;;;7.50;99.90;;;;;;5090648;28;20044;-78
2021/12/12 10:27:43;;;;;;;86.97;35.03;;;7.50;99.90;;;;;;5063185;28;20045;-79
2021/12/12 10:30:21;;;;;;;73.47;26.42;;;7.60;99.90;;;;;;5055835;28;20413;-79
2021/12/12 10:33:16;;;;;;;80.03;26.77;;;7.70;99.90;;;;;;5041585;28;20037;-79
2021/12/12 10:35:50;;;;;;;77.97;27.13;;;7.70;99.90;;;;;;5069397;28;20037;-79
2021/12/12 10:38:37;;;;;;;76.35;27.00;;;7.70;99.90;;;;;;5054460;28;20039;-78
2021/12/12 10:41:09;;;;;;;84.13;27.70;;;7.80;99.90;;;;;;5061869;28;20048;-79
2021/12/12 10:43:41;;;;;;;95.03;29.70;;;7.80;99.90;;;;;;5053063;28;20111;-78
2021/12/12 10:46:16;;;;;;;98.90;30.05;;;7.80;99.90;;;;;;5069224;28;20091;-78
2021/12/12 10:49:21;;;;;;;81.05;28.13;;;7.80;99.90;;;;;;5071991;28;20032;-78
2021/12/12 10:52:02;;;;;;;82.72;28.27;;;7.90;99.90;;;;;;5067354;28;20064;-78
2021/12/12 10:54:42;;;;;;;83.53;28.50;;;7.90;99.90;;;;;;5059068;28;20047;-79
2021/12/12 10:57:18;;;;;;;69.95;26.20;;;8.00;99.90;;;;;;5069524;28;20124;-79
2021/12/12 11:00:03;;;;;;;81.47;27.52;;;7.90;99.90;;;;;;5072593;28;20047;-79
2021/12/12 11:02:30;;;;;;;;;;;8.00;99.90;;;;;;5056577;28;20109;-79
2021/12/12 11:05:10;;;;;;;68.18;24.45;;;8.10;99.90;;;;;;5072841;28;19938;-78
2021/12/12 11:07:46;;;;;;;51.25;21.48;;;8.10;99.90;;;;;;5076305;28;21250;-79
2021/12/12 11:10:28;;;;;;;77.93;27.08;;;8.20;99.90;;;;;;5076986;28;20067;-79
2021/12/12 11:12:58;;;;;;;74.70;27.08;;;8.20;99.90;;;;;;5090332;28;20036;-79
2021/12/12 11:15:42;;;;;;;62.75;25.30;;;8.30;99.90;;;;;;5073633;28;20037;-79
2021/12/12 11:18:14;;;;;;;;;;;8.30;99.90;;;;;;5073821;28;20041;-79
2021/12/12 11:20:44;;;;;;;78.35;25.95;;;8.30;99.90;;;;;;5056581;28;19916;-79
2021/12/12 11:23:13;;;;;;;65.78;23.67;;;8.30;99.90;;;;;;5073026;28;20044;-78
2021/12/12 11:25:47;;;;;;;77.78;27.50;;;8.30;99.90;;;;;;5074739;28;20049;-78
2021/12/12 11:28:23;;;;;;;77.40;26.10;;;8.40;99.90;;;;;;5078237;28;20044;-79
2021/12/12 11:31:04;;;;;;;68.40;24.50;;;8.40;99.90;;;;;;5082441;28;20117;-79
2021/12/12 11:33:33;;;;;;;69.10;25.23;;;8.40;99.90;;;;;;5055285;28;20462;-79
2021/12/12 11:36:00;;;;;;;74.40;29.88;;;8.40;99.90;;;;;;5073040;28;20084;-79
2021/12/12 11:38:35;;;;;;;69.28;25.13;;;8.40;99.90;;;;;;5105618;28;20066;-79
2021/12/12 11:41:28;;;;;;;61.60;25.55;;;8.50;99.90;;;;;;5063858;28;20096;-79
2021/12/12 11:44:26;;;;;;;63.35;23.85;;;8.50;99.90;;;;;;5038745;28;20128;-78
2021/12/12 11:47:25;;;;;;;48.22;21.35;;;8.50;99.90;;;;;;5064492;28;20051;-79
2021/12/12 11:50:01;;;;;;;58.17;22.27;;;8.50;99.90;;;;;;5071756;28;20454;-78
2021/12/12 11:52:39;;;;;;;47.83;21.35;;;8.50;99.90;;;;;;5072210;28;20102;-78
2021/12/12 11:55:23;;;;;;;54.67;21.60;;;8.60;99.90;;;;;;5056126;28;20387;-79
2021/12/12 11:58:02;;;;;;;45.80;20.25;;;8.60;99.90;;;;;;5087119;28;20412;-79
2021/12/12 12:00:34;;;;;;;57.55;22.30;;;8.60;99.90;;;;;;5060128;28;20115;-78
2021/12/12 12:03:27;;;;;;;45.95;19.85;;;8.60;99.90;;;;;;5072135;28;20517;-79
2021/12/12 12:06:14;;;;;;;48.88;21.02;;;8.70;99.90;;;;;;5072949;28;20107;-78
2021/12/12 12:09:19;;;;;;;50.33;19.90;;;8.60;99.90;;;;;;5072169;28;20074;-78
2021/12/12 12:11:56;;;;;;;;;;;8.70;99.90;;;;;;5071158;28;20089;-78
2021/12/12 12:14:34;;;;;;;48.92;20.73;;;8.70;99.90;;;;;;5067395;28;20341;-78
2021/12/12 12:17:21;;;;;;;49.95;20.70;;;8.70;99.90;;;;;;5044066;28;21298;-78
2021/12/12 12:20:18;;;;;;;42.90;17.98;;;8.70;99.90;;;;;;5054225;28;20574;-78
2021/12/12 12:22:55;;;;;;;43.03;19.25;;;8.80;99.90;;;;;;5071481;28;20044;-77
2021/12/12 12:26:51;;;;;;;57.25;22.02;;;8.80;99.90;;;;;;5053444;28;20036;-77
2021/12/12 12:28:28;;;;;;;42.63;17.92;;;8.80;99.90;;;;;;5068965;28;20075;-78
2021/12/12 12:31:36;;;;;;;51.80;21.10;;;8.80;99.90;;;;;;5085501;28;20390;-78
2021/12/12 12:34:39;;;;;;;56.03;21.25;;;8.90;99.90;;;;;;5061511;28;20048;-79
2021/12/12 12:37:42;;;;;;;51.13;20.85;;;8.90;99.90;;;;;;5069647;28;20041;-78
2021/12/12 12:40:45;;;;;;;41.47;18.98;;;8.90;99.90;;;;;;5053763;28;20502;-78
2021/12/12 12:43:50;;;;;;;36.92;17.60;;;8.90;99.90;;;;;;5054948;28;20517;-78
2021/12/12 12:46:37;;;;;;;35.97;17.83;;;8.90;99.90;;;;;;5055316;28;20040;-78
2021/12/12 12:50:03;;;;;;;45.85;18.83;;;8.90;99.90;;;;;;5052804;28;20052;-77
2021/12/12 12:52:46;;;;;;;51.70;19.42;;;9.00;99.90;;;;;;5074623;28;20502;-78
2021/12/12 12:55:34;;;;;;;37.78;16.48;;;8.90;99.90;;;;;;5087289;28;20040;-78
2021/12/12 12:58:18;;;;;;;40.60;17.38;;;8.90;99.90;;;;;;5070614;28;20040;-78
2021/12/12 13:00:47;;;;;;;37.53;16.40;;;9.00;99.90;;;;;;5072161;28;20051;-78
2021/12/12 13:03:31;;;;;;;38.55;16.90;;;9.00;99.90;;;;;;5052699;28;20109;-78
2021/12/12 13:06:04;;;;;;;50.88;18.98;;;9.10;99.90;;;;;;5070528;28;20051;-78
2021/12/12 13:08:48;;;;;;;46.85;18.23;;;9.00;99.90;;;;;;5053362;28;20094;-78
2021/12/12 13:11:17;;;;;;;40.92;17.73;;;9.00;99.90;;;;;;5071696;28;20499;-78
2021/12/12 13:14:20;;;;;;;52.30;20.23;;;9.00;99.90;;;;;;5076389;28;20047;-77
2021/12/12 13:16:58;;;;;;;50.03;18.63;;;9.00;99.90;;;;;;5054307;28;20501;-77
2021/12/12 13:19:42;;;;;;;47.38;18.60;;;9.00;99.90;;;;;;5063648;28;20094;-78
2021/12/12 13:22:20;;;;;;;51.92;18.27;;;9.10;99.90;;;;;;5075174;28;20405;-78
2021/12/12 13:25:09;;;;;;;52.45;17.95;;;9.10;99.90;;;;;;5063583;28;20531;-78
2021/12/12 13:28:08;;;;;;;41.75;17.17;;;9.10;99.90;;;;;;5072059;28;20040;-78
2021/12/12 13:31:00;;;;;;;36.75;15.77;;;9.10;99.90;;;;;;5057657;28;20064;-78
2021/12/12 13:33:39;;;;;;;46.85;17.40;;;9.20;99.90;;;;;;5069156;28;20396;-78
2021/12/12 13:36:33;;;;;;;43.42;17.45;;;9.20;99.90;;;;;;5059655;28;20088;-78